Time;durP1;ratioP1;P1;durP2;ratioP2;P2;SDS_P1;SDS_P2;PMS_P1;PMS_P2;Temp;Humidity;BMP_temperature;BMP_pressure;BME280_temperature;BME280_humidity;BME280_pressure;Samples;Min_cycle;Max_cycle;Signal;HPM_P1;HPM_P2
2023/05/23 05:53:07;;;;;;;92.88;54.08;;;;;;;14.85;97.83;96585.66;2106807;27;20545;-57
2023/05/23 05:54:09;;;;;;;101.78;56.75;;;;;;;14.94;97.90;96591.25;2096880;28;20223;-57
2023/05/23 08:24:29;;;;;;;39.15;27.45;;;;;;;15.15;83.89;96695.09;2084498;27;20553;-58
2023/05/23 08:26:45;;;;;;;41.92;27.05;;;;;;;15.41;83.10;96703.13;2106993;27;20580;-56
2023/05/23 08:33:23;;;;;;;38.90;25.50;;;;;;;15.21;83.14;96701.75;2084850;28;20561;-57
2023/05/23 08:35:46;;;;;;;42.10;28.25;;;;;;;15.21;83.13;96706.16;2108564;27;21233;-57
2023/05/23 08:38:06;;;;;;;40.80;26.95;;;;;;;15.54;82.32;96713.75;2099737;27;20580;-58
2023/05/23 08:40:35;;;;;;;42.08;28.35;;;;;;;15.30;82.41;96713.47;2085405;28;21181;-57
2023/05/23 08:43:04;;;;;;;41.47;26.85;;;;;;;15.22;82.76;96713.94;2085349;28;21059;-57
2023/05/23 08:45:39;;;;;;;41.90;27.95;;;;;;;15.32;82.69;96717.69;2099605;27;20550;-58
2023/05/23 09:05:58;;;;;;;27.55;19.33;;;;;;;15.38;81.99;96729.63;2083069;28;20569;-57
2023/05/23 09:08:18;;;;;;;28.40;20.02;;;;;;;15.19;81.37;96730.78;2098043;27;20521;-57
2023/05/23 09:09:19;;;;;;;30.45;18.33;;;;;;;15.41;81.43;96725.97;2084682;28;20741;-58
2023/05/23 09:12:03;;;;;;;30.23;20.00;;;;;;;15.88;79.89;96744.97;2107050;27;20587;-57
2023/05/23 09:13:04;;;;;;;29.38;19.90;;;;;;;15.71;80.12;96733.69;2106056;28;20658;-58
2023/05/23 09:15:33;;;;;;;29.55;19.60;;;;;;;15.48;80.26;96737.81;2091764;27;20557;-60
2023/05/23 09:18:03;;;;;;;28.58;19.83;;;;;;;15.49;80.24;96735.06;2099972;27;20791;-57
2023/05/23 09:31:40;;;;;;;32.33;15.80;;;;;;;15.54;79.78;96737.41;2090129;28;20548;-57
2023/05/23 09:32:55;;;;;;;24.98;17.25;;;;;;;15.68;79.91;96752.34;2089664;28;20199;-57
2023/05/23 09:33:58;;;;;;;27.70;17.90;;;;;;;15.71;80.04;96757.41;2083838;28;20772;-58
2023/05/23 09:36:29;;;;;;;28.77;17.95;;;;;;;15.84;79.50;96746.94;2083662;28;21060;-57
2023/05/23 09:37:34;;;;;;;25.60;18.15;;;;;;;16.02;79.39;96757.25;2077935;28;20197;-57
2023/05/23 09:38:45;;;;;;;25.02;19.15;;;;;;;16.06;78.97;96756.09;2077228;28;20246;-57
2023/05/23 09:39:47;;;;;;;28.70;20.02;;;;;;;16.06;79.08;96756.97;2065054;28;20926;-57
2023/05/23 09:40:54;;;;;;;28.73;19.83;;;;;;;16.22;77.74;96750.69;2063803;28;20225;-57
2023/05/23 09:41:58;;;;;;;26.73;17.65;;;;;;;16.31;77.47;96745.63;2064129;28;20206;-57
2023/05/23 09:43:04;;;;;;;25.17;18.48;;;;;;;15.96;78.01;96750.56;2067613;28;20201;-59
2023/05/23 09:44:08;;;;;;;26.42;18.40;;;;;;;16.07;77.63;96745.44;2066149;28;20229;-60
2023/05/23 09:45:14;;;;;;;31.08;17.60;;;;;;;16.01;77.65;96743.25;2066349;28;20251;-60
2023/05/23 09:46:15;;;;;;;26.48;18.80;;;;;;;15.99;77.43;96742.50;2065813;28;20191;-57
2023/05/23 09:47:17;;;;;;;33.75;17.38;;;;;;;16.29;76.92;96744.91;2063856;28;20287;-58
2023/05/23 09:48:19;;;;;;;23.88;18.17;;;;;;;16.28;76.32;96751.09;2063585;28;20210;-57
2023/05/23 09:49:21;;;;;;;26.58;18.60;;;;;;;16.30;76.74;96745.72;2063562;28;20232;-57
2023/05/23 09:50:23;;;;;;;23.95;16.33;;;;;;;16.65;76.41;96750.44;2066770;28;20202;-57
2023/05/23 09:51:25;;;;;;;29.80;17.20;;;;;;;16.63;75.81;96740.00;2067214;28;20228;-58
2023/05/23 09:52:35;;;;;;;26.23;18.10;;;;;;;16.83;76.11;96747.50;2065150;28;20605;-57
2023/05/23 09:53:36;;;;;;;27.20;17.73;;;;;;;16.95;75.56;96747.53;2064291;28;20197;-58
2023/05/23 09:54:42;;;;;;;24.83;17.08;;;;;;;17.08;74.84;96746.69;2067257;28;20202;-57
2023/05/23 09:55:43;;;;;;;21.52;16.00;;;;;;;17.31;74.76;96750.38;2066697;28;20209;-58
2023/05/23 09:56:45;;;;;;;22.58;15.93;;;;;;;17.45;73.08;96744.94;2066283;28;20668;-57
2023/05/23 09:57:51;;;;;;;19.05;14.88;;;;;;;17.61;72.89;96747.34;2065316;28;20198;-57
2023/05/23 09:58:54;;;;;;;20.75;15.00;;;;;;;17.93;72.69;96748.63;2065915;28;20285;-57
2023/05/23 09:59:59;;;;;;;21.35;14.77;;;;;;;18.02;71.65;96747.16;2065094;28;20202;-58
2023/05/23 10:01:02;;;;;;;24.90;15.55;;;;;;;18.15;71.09;96753.19;2065495;28;20283;-57
2023/05/23 10:02:07;;;;;;;19.83;14.23;;;;;;;18.00;71.53;96749.88;2064469;28;20201;-57
2023/05/23 10:03:12;;;;;;;21.50;14.57;;;;;;;18.41;70.36;96753.91;2063733;28;20463;-58
2023/05/23 10:04:20;;;;;;;19.27;14.75;;;;;;;18.96;68.92;96749.84;2065845;28;20711;-57
2023/05/23 10:05:48;;;;;;;17.50;13.88;;;;;;;19.30;67.66;96749.88;2063770;28;20201;-58
2023/05/23 10:06:55;;;;;;;20.95;12.60;;;;;;;19.50;66.45;96746.53;2060062;28;20214;-58
2023/05/23 10:08:03;;;;;;;22.70;13.50;;;;;;;19.22;66.86;96756.63;2063865;28;20202;-57
2023/05/23 10:09:07;;;;;;;20.30;12.60;;;;;;;19.56;66.62;96745.19;2061483;28;20275;-57
2023/05/23 10:10:11;;;;;;;22.88;13.25;;;;;;;19.40;66.77;96746.41;2062487;28;20248;-58
2023/05/23 10:11:12;;;;;;;25.33;13.30;;;;;;;19.61;65.52;96744.81;2063641;28;20753;-58
2023/05/23 10:12:49;;;;;;;17.92;12.02;;;;;;;19.33;66.27;96753.13;2064242;28;20213;-58
2023/05/23 10:13:52;;;;;;;20.55;13.98;;;;;;;18.81;67.76;96749.22;2062392;28;20198;-57
2023/05/23 10:15:07;;;;;;;22.52;14.80;;;;;;;18.70;67.37;96742.09;2064576;28;20239;-57
2023/05/23 10:16:25;;;;;;;19.48;14.13;;;;;;;18.60;67.09;96745.44;2064217;28;20209;-58
2023/05/23 10:17:45;;;;;;;18.80;13.38;;;;;;;18.55;67.69;96752.03;2063971;28;20233;-57
2023/05/23 10:18:54;;;;;;;17.17;13.57;;;;;;;18.59;67.90;96735.81;2065179;28;20664;-58
2023/05/23 10:20:11;;;;;;;20.42;14.73;;;;;;;18.73;67.10;96747.16;2067097;28;20795;-58
2023/05/23 10:21:23;;;;;;;25.13;14.48;;;;;;;18.55;67.29;96750.22;2065433;28;20229;-57
2023/05/23 10:22:25;;;;;;;18.75;13.57;;;;;;;18.38;67.57;96751.47;2066197;28;20231;-61
2023/05/23 10:23:28;;;;;;;21.10;15.80;;;;;;;18.31;68.06;96755.56;2064029;28;20206;-58
2023/05/23 10:24:30;;;;;;;19.83;14.27;;;;;;;18.31;67.97;96752.06;2062997;28;20309;-58
2023/05/23 10:25:34;;;;;;;23.77;15.05;;;;;;;18.54;68.12;96756.47;2064381;28;20280;-58
2023/05/23 10:26:36;;;;;;;24.67;16.88;;;;;;;18.71;67.30;96755.19;2066345;28;20233;-59
2023/05/23 10:27:38;;;;;;;18.48;14.15;;;;;;;18.83;67.39;96764.00;2065600;28;20199;-57
2023/05/23 10:28:40;;;;;;;20.08;14.63;;;;;;;18.84;67.31;96762.19;2066502;28;20202;-57
2023/05/23 10:29:43;;;;;;;21.42;16.65;;;;;;;18.55;67.18;96762.59;2066565;28;20244;-57
2023/05/23 10:30:45;;;;;;;19.70;15.38;;;;;;;18.37;68.22;96767.47;2067482;28;20206;-57
2023/05/23 10:31:47;;;;;;;24.40;15.00;;;;;;;18.37;68.53;96755.09;2068653;28;20228;-56
2023/05/23 10:32:49;;;;;;;17.13;13.77;;;;;;;18.41;68.22;96756.56;2066663;28;20199;-56
2023/05/23 10:34:07;;;;;;;22.33;15.20;;;;;;;18.55;68.34;96758.16;2064797;28;20205;-56
2023/05/23 10:35:12;;;;;;;18.08;14.25;;;;;;;18.67;68.21;96753.75;2065457;28;20202;-56
2023/05/23 10:36:26;;;;;;;25.83;13.50;;;;;;;18.54;68.74;96751.19;2066140;28;20229;-56
2023/05/23 10:37:37;;;;;;;20.33;14.18;;;;;;;18.61;67.96;96756.84;2065500;28;20684;-56
2023/05/23 10:38:57;;;;;;;20.73;14.20;;;;;;;18.35;68.70;96757.00;2067030;28;20534;-57
2023/05/23 10:40:17;;;;;;;17.60;12.65;;;;;;;19.33;66.72;96753.13;2067123;28;20198;-56
2023/05/23 10:41:24;;;;;;;16.83;12.23;;;;;;;19.76;65.04;96751.53;2065763;28;20293;-57
2023/05/23 10:42:41;;;;;;;24.15;15.30;;;;;;;19.96;64.13;96751.75;2066197;28;20290;-56
2023/05/23 10:44:11;;;;;;;24.02;14.18;;;;;;;19.82;64.47;96756.38;2066417;28;20561;-57
2023/05/23 10:45:17;;;;;;;19.77;13.50;;;;;;;19.95;63.07;96744.78;2065354;28;20654;-56
2023/05/23 10:46:20;;;;;;;26.42;12.77;;;;;;;20.19;62.77;96753.38;2066562;28;20190;-56
2023/05/23 10:47:29;;;;;;;18.77;12.93;;;;;;;19.74;62.52;96749.03;2063465;28;20234;-57
2023/05/23 10:48:34;;;;;;;18.48;13.43;;;;;;;20.01;62.71;96754.88;2059689;28;20191;-56
2023/05/23 10:49:40;;;;;;;25.45;12.23;;;;;;;20.42;61.32;96755.94;2060983;28;20237;-57
2023/05/23 10:50:41;;;;;;;19.40;12.68;;;;;;;20.53;60.17;96747.09;2061777;28;20241;-57
2023/05/23 10:51:47;;;;;;;18.70;13.43;;;;;;;20.30;60.52;96755.16;2061043;28;20644;-56
2023/05/23 10:52:52;;;;;;;16.92;11.95;;;;;;;19.92;60.88;96755.63;2059392;28;20700;-57
2023/05/23 10:53:53;;;;;;;17.75;12.80;;;;;;;19.90;61.25;96755.75;2059281;28;20206;-57
2023/05/23 10:54:55;;;;;;;14.38;11.80;;;;;;;20.14;60.44;96752.09;2060907;28;20210;-56
2023/05/23 10:55:57;;;;;;;17.58;12.25;;;;;;;19.58;60.43;96746.75;2061729;28;20199;-57
2023/05/23 10:57:05;;;;;;;22.05;14.32;;;;;;;19.05;61.32;96744.69;2058996;28;20689;-57
2023/05/23 10:58:19;;;;;;;18.45;12.80;;;;;;;19.88;61.85;96755.03;2057029;28;20199;-57
2023/05/23 10:59:21;;;;;;;19.38;12.68;;;;;;;19.66;62.01;96742.66;2058547;28;20728;-57
2023/05/23 11:00:24;;;;;;;15.52;11.95;;;;;;;19.70;61.15;96723.72;2061356;28;20288;-57
2023/05/23 11:01:25;;;;;;;16.60;12.32;;;;;;;20.00;61.10;96758.50;2059881;28;20692;-58
2023/05/23 11:02:28;;;;;;;19.42;11.75;;;;;;;20.34;60.47;96750.44;2056751;28;20199;-58
2023/05/23 11:03:35;;;;;;;14.48;10.60;;;;;;;20.91;58.92;96758.97;2058795;28;20252;-58
2023/05/23 11:04:36;;;;;;;16.80;11.55;;;;;;;20.52;59.20;96746.25;2060414;28;20223;-58
2023/05/23 11:05:47;;;;;;;18.95;10.70;;;;;;;20.55;58.78;96747.81;2060654;28;20214;-58
2023/05/23 11:06:49;;;;;;;15.93;10.60;;;;;;;20.33;60.16;96744.28;2056915;28;20746;-58
2023/05/23 11:08:07;;;;;;;15.13;11.20;;;;;;;20.00;59.92;96753.22;2060173;28;20278;-58
2023/05/23 11:09:18;;;;;;;18.80;11.55;;;;;;;19.64;60.73;96752.50;2059750;28;20222;-58
2023/05/23 11:10:20;;;;;;;12.25;9.52;;;;;;;20.05;59.75;96759.81;2057244;28;20213;-58
2023/05/23 11:11:21;;;;;;;21.17;14.15;;;;;;;19.85;59.90;96755.28;2061529;28;20277;-58
2023/05/23 11:12:40;;;;;;;36.92;24.08;;;;;;;19.62;59.82;96757.94;2060090;28;20214;-58
2023/05/23 11:13:59;;;;;;;14.95;11.10;;;;;;;19.45;60.92;96761.09;2059782;28;20202;-58
2023/05/23 11:15:01;;;;;;;13.80;9.00;;;;;;;20.01;60.37;96757.53;2061146;28;20198;-58
2023/05/23 11:16:38;;;;;;;11.90;8.48;;;;;;;19.71;60.07;96757.19;2060940;28;20548;-58
2023/05/23 11:17:49;;;;;;;12.50;9.15;;;;;;;19.84;59.53;96757.09;2061410;28;20261;-59
2023/05/23 11:18:51;;;;;;;11.77;8.20;;;;;;;19.95;59.75;96756.22;2056285;28;20225;-59
2023/05/23 11:20:05;;;;;;;13.30;9.20;;;;;;;20.09;59.72;96756.91;2054332;28;20198;-59
2023/05/23 11:21:08;;;;;;;16.48;8.73;;;;;;;20.44;59.92;96759.28;2061983;28;20202;-59
2023/05/23 11:24:50;;;;;;;14.43;8.90;;;;;;;19.97;61.42;96762.25;2057459;28;20180;-59
2023/05/23 11:25:54;;;;;;;12.68;9.77;;;;;;;19.99;61.63;96762.97;2062356;28;20211;-59
2023/05/23 11:29:18;;;;;;;19.48;9.00;;;;;;;19.98;61.32;96765.75;2059239;28;20226;-58
2023/05/23 11:30:20;;;;;;;12.57;9.38;;;;;;;20.03;61.78;96763.56;2061237;28;20785;-59
2023/05/23 11:31:23;;;;;;;21.92;9.63;;;;;;;19.84;62.24;96759.72;2061417;28;20327;-58
2023/05/23 11:32:27;;;;;;;12.70;9.60;;;;;;;19.40;62.80;96764.94;2061549;28;20199;-59
2023/05/23 11:33:29;;;;;;;10.88;8.38;;;;;;;19.37;63.49;96772.28;2060776;28;20314;-59
2023/05/23 11:34:31;;;;;;;13.20;9.30;;;;;;;19.34;63.36;96761.94;2060891;28;20252;-58
2023/05/23 11:35:33;;;;;;;17.88;9.68;;;;;;;19.18;63.22;96763.13;2061173;28;20284;-59
2023/05/23 11:36:35;;;;;;;14.38;8.85;;;;;;;19.15;64.08;96773.13;2060941;28;20556;-58
2023/05/23 11:37:39;;;;;;;11.95;9.55;;;;;;;18.87;64.46;96770.75;2058813;28;20283;-59
2023/05/23 11:38:41;;;;;;;12.57;9.75;;;;;;;18.85;64.59;96769.19;2058266;28;20202;-59
2023/05/23 11:39:42;;;;;;;13.13;10.02;;;;;;;18.80;64.71;96763.41;2059893;28;20241;-58
2023/05/23 11:40:47;;;;;;;15.30;9.55;;;;;;;19.10;64.33;96762.88;2061958;28;20282;-58
2023/05/23 11:41:57;;;;;;;13.60;9.70;;;;;;;19.05;64.93;96763.22;2060405;28;20206;-58
2023/05/23 11:43:01;;;;;;;10.73;8.70;;;;;;;18.97;65.21;96765.63;2057973;28;20206;-58
2023/05/23 11:44:10;;;;;;;10.77;9.50;;;;;;;18.55;65.60;96759.94;2059704;28;20302;-59
2023/05/23 11:45:12;;;;;;;15.90;9.68;;;;;;;18.30;66.55;96767.09;2059052;28;20206;-58
2023/05/23 11:46:14;;;;;;;19.13;8.80;;;;;;;18.39;66.55;96758.47;2057824;28;20201;-59
2023/05/23 11:47:16;;;;;;;10.57;7.45;;;;;;;18.68;65.79;96768.66;2057483;28;20196;-58
2023/05/23 11:48:18;;;;;;;10.88;7.80;;;;;;;18.43;65.63;96764.38;2056744;28;20254;-58
2023/05/23 11:49:19;;;;;;;11.05;7.50;;;;;;;18.32;64.88;96733.47;2059864;28;20222;-58
2023/05/23 11:50:21;;;;;;;10.90;7.72;;;;;;;18.85;64.06;96758.59;2060998;28;20196;-59
2023/05/23 11:51:22;;;;;;;14.18;6.97;;;;;;;19.08;63.87;96762.16;2060307;28;20198;-58
2023/05/23 11:52:31;;;;;;;14.35;8.20;;;;;;;18.92;63.33;96759.84;2059086;28;20203;-59
2023/05/23 11:53:32;;;;;;;9.45;7.13;;;;;;;18.99;62.68;96755.75;2057990;28;20550;-59
2023/05/23 11:54:34;;;;;;;10.02;6.63;;;;;;;18.96;62.38;96761.28;2056839;28;20218;-59
2023/05/23 11:55:39;;;;;;;7.75;6.43;;;;;;;19.02;62.29;96755.53;2057209;28;20202;-59
2023/05/23 11:56:40;;;;;;;8.95;6.65;;;;;;;18.71;61.61;96757.84;2060340;28;20198;-59
2023/05/23 11:57:42;;;;;;;8.80;5.15;;;;;;;18.73;61.69;96757.75;2062133;28;20201;-58
2023/05/23 11:58:44;;;;;;;9.55;5.95;;;;;;;19.24;60.33;96760.00;2059413;28;20229;-58
2023/05/23 11:59:45;;;;;;;9.05;5.63;;;;;;;19.58;59.17;96743.28;2062152;28;20869;-58
2023/05/23 12:00:47;;;;;;;6.80;5.20;;;;;;;19.87;58.64;96746.25;2059524;28;20209;-58
2023/05/23 12:01:48;;;;;;;8.35;4.95;;;;;;;20.13;58.42;96743.28;2060203;28;20236;-58
2023/05/23 12:02:50;;;;;;;6.40;5.18;;;;;;;19.94;57.84;96745.75;2059082;28;20204;-58
2023/05/23 12:03:51;;;;;;;6.32;5.20;;;;;;;20.61;57.26;96747.31;2056297;28;20283;-58
2023/05/23 12:04:53;;;;;;;7.13;5.40;;;;;;;21.29;56.81;96743.38;2059385;28;20195;-58
2023/05/23 12:05:55;;;;;;;8.57;4.97;;;;;;;21.78;56.88;96744.41;2060000;28;20205;-58
2023/05/23 12:06:56;;;;;;;11.40;6.10;;;;;;;22.00;55.39;96751.34;2058865;28;20204;-58
2023/05/23 12:07:58;;;;;;;8.00;5.53;;;;;;;21.96;55.93;96743.75;2057422;28;20330;-58
2023/05/23 12:09:00;;;;;;;9.68;5.35;;;;;;;21.85;55.72;96750.03;2060497;28;20222;-58
2023/05/23 12:10:04;;;;;;;8.85;6.07;;;;;;;21.33;55.78;96748.31;2062030;28;20206;-58
2023/05/23 12:11:06;;;;;;;8.25;6.05;;;;;;;21.00;56.66;96746.72;2059565;28;20681;-58
2023/05/23 12:12:08;;;;;;;10.27;6.35;;;;;;;20.76;58.07;96750.50;2059829;28;20212;-58
2023/05/23 12:13:10;;;;;;;6.95;5.40;;;;;;;20.76;58.43;96752.31;2060671;28;20268;-58
2023/05/23 12:14:16;;;;;;;14.27;6.18;;;;;;;20.75;58.39;96758.56;2059938;28;20247;-58
2023/05/23 12:15:17;;;;;;;8.85;6.45;;;;;;;20.42;58.27;96755.94;2057080;28;20329;-58
2023/05/23 12:16:20;;;;;;;10.13;5.68;;;;;;;20.47;59.22;96760.88;2057022;28;20204;-60
2023/05/23 12:17:21;;;;;;;6.53;5.82;;;;;;;20.58;58.24;96752.84;2057521;28;20578;-58
2023/05/23 12:18:24;;;;;;;7.00;5.20;;;;;;;20.24;59.33;96745.06;2059701;28;20202;-58
2023/05/23 12:19:25;;;;;;;6.43;5.65;;;;;;;20.46;58.67;96752.06;2059652;28;20795;-58
2023/05/23 12:20:27;;;;;;;8.85;7.35;;;;;;;19.78;59.25;96749.59;2060395;28;20697;-58
2023/05/23 12:21:43;;;;;;;12.50;6.50;;;;;;;19.85;59.77;96750.00;2062390;28;20198;-58
2023/05/23 12:22:45;;;;;;;7.63;5.95;;;;;;;19.99;59.83;96747.06;2058630;28;20201;-58
2023/05/23 12:23:46;;;;;;;9.93;5.55;;;;;;;19.99;59.65;96751.53;2058067;28;20206;-58
2023/05/23 12:24:47;;;;;;;9.35;5.65;;;;;;;19.98;60.23;96748.03;2059658;28;20222;-58
2023/05/23 12:25:52;;;;;;;10.55;5.03;;;;;;;20.06;60.70;96752.69;2062038;28;20792;-58
2023/05/23 12:26:57;;;;;;;8.90;5.47;;;;;;;19.96;60.08;96754.41;2061064;28;20196;-58
2023/05/23 12:27:59;;;;;;;7.85;5.95;;;;;;;19.97;60.93;96751.66;2059127;28;20248;-57
2023/05/23 12:29:01;;;;;;;7.03;5.40;;;;;;;19.94;59.81;96737.81;2059570;28;20295;-60
2023/05/23 12:30:10;;;;;;;8.50;5.78;;;;;;;19.92;60.40;96751.16;2060116;28;20198;-57
2023/05/23 12:31:15;;;;;;;11.50;8.70;;;;;;;20.13;59.93;96755.72;2061980;28;20198;-59
2023/05/23 12:32:17;;;;;;;9.77;7.07;;;;;;;20.47;59.62;96747.63;2061705;28;20207;-60
2023/05/23 12:33:19;;;;;;;8.80;6.50;;;;;;;20.05;59.36;96757.16;2061935;28;20213;-59
2023/05/23 12:34:20;;;;;;;8.45;6.30;;;;;;;19.77;60.46;96752.38;2060443;28;20309;-58
2023/05/23 12:35:24;;;;;;;7.85;6.10;;;;;;;20.01;60.23;96753.09;2059569;28;20206;-58
2023/05/23 12:36:31;;;;;;;11.25;5.10;;;;;;;19.86;60.03;96751.69;2058596;28;20214;-59
2023/05/23 12:37:32;;;;;;;6.07;5.18;;;;;;;19.89;60.24;96732.88;2058703;28;20221;-59
2023/05/23 12:38:36;;;;;;;7.97;5.70;;;;;;;20.18;59.99;96750.88;2057725;28;20849;-58
2023/05/23 12:39:38;;;;;;;7.03;5.53;;;;;;;19.89;60.41;96744.31;2061342;28;20222;-59
2023/05/23 12:40:40;;;;;;;7.43;5.35;;;;;;;19.98;60.57;96748.03;2060646;28;20681;-58
2023/05/23 12:41:42;;;;;;;8.48;5.38;;;;;;;20.09;60.09;96735.69;2060290;28;20237;-58
2023/05/23 12:42:52;;;;;;;7.63;5.75;;;;;;;20.68;58.89;96739.66;2059575;28;20286;-58
2023/05/23 12:43:55;;;;;;;6.10;4.05;;;;;;;20.90;57.81;96736.06;2060141;28;20252;-59
2023/05/23 12:44:57;;;;;;;7.43;4.85;;;;;;;21.56;57.29;96728.69;2058610;28;20241;-58
2023/05/23 12:45:58;;;;;;;9.90;4.45;;;;;;;21.83;55.55;96734.22;2059773;28;20270;-58
2023/05/23 12:47:00;;;;;;;6.40;4.80;;;;;;;21.80;55.71;96728.31;2056195;28;20290;-58
2023/05/23 12:48:06;;;;;;;6.82;4.88;;;;;;;21.61;55.47;96729.13;2056086;28;20311;-58
2023/05/23 12:49:07;;;;;;;6.13;4.90;;;;;;;21.98;56.02;96720.56;2056614;28;20222;-58
2023/05/23 12:50:10;;;;;;;6.22;5.00;;;;;;;22.17;55.57;96731.19;2060443;28;20266;-58
2023/05/23 12:51:12;;;;;;;4.90;3.92;;;;;;;22.44;55.03;96731.50;2058818;28;20206;-58
2023/05/23 12:52:14;;;;;;;5.93;4.10;;;;;;;22.47;53.40;96732.06;2056496;28;20199;-58
2023/05/23 12:53:15;;;;;;;13.43;5.15;;;;;;;22.72;54.23;96723.66;2057408;28;21015;-58
2023/05/23 12:54:17;;;;;;;7.93;4.75;;;;;;;22.91;54.17;96733.41;2059779;28;20268;-58
2023/05/23 12:55:19;;;;;;;8.32;4.95;;;;;;;23.20;53.64;96732.50;2060505;28;20205;-58
2023/05/23 12:56:21;;;;;;;7.20;4.45;;;;;;;22.72;54.80;96724.47;2058970;28;20248;-59
2023/05/23 12:57:22;;;;;;;6.90;4.70;;;;;;;22.53;54.89;96722.69;2060950;28;20210;-58
2023/05/23 12:58:24;;;;;;;8.95;4.35;;;;;;;21.92;54.83;96723.75;2062257;28;20210;-58
2023/05/23 12:59:26;;;;;;;7.00;3.83;;;;;;;21.89;54.82;96724.00;2059664;28;20317;-58
2023/05/23 13:00:27;;;;;;;5.90;4.88;;;;;;;21.90;54.42;96723.88;2059555;28;20282;-58
2023/05/23 13:01:29;;;;;;;5.93;4.55;;;;;;;22.05;54.69;96718.16;2059081;28;20207;-58
2023/05/23 13:02:31;;;;;;;8.27;4.18;;;;;;;21.51;55.62;96724.59;2057752;28;20202;-58
2023/05/23 13:03:32;;;;;;;6.82;3.72;;;;;;;21.85;55.04;96724.31;2062048;28;20259;-58
2023/05/23 13:04:34;;;;;;;7.47;4.75;;;;;;;21.65;55.68;96718.09;2059939;28;20222;-57
2023/05/23 13:05:36;;;;;;;8.15;3.75;;;;;;;21.65;55.58;96725.25;2060927;28;20209;-58
2023/05/23 13:06:37;;;;;;;4.40;3.70;;;;;;;21.69;56.21;96721.31;2058720;28;20210;-57
2023/05/23 13:07:38;;;;;;;5.80;4.30;;;;;;;20.97;57.12;96723.09;2060071;28;20198;-57
2023/05/23 13:08:40;;;;;;;6.57;3.90;;;;;;;20.87;58.14;96726.56;2058903;28;20199;-57
2023/05/23 13:09:42;;;;;;;13.10;3.95;;;;;;;20.62;58.78;96726.91;2061814;28;20662;-57
2023/05/23 13:10:43;;;;;;;7.20;4.18;;;;;;;20.11;59.97;96717.88;2060982;28;20257;-58
2023/05/23 13:11:45;;;;;;;5.47;3.97;;;;;;;20.27;60.32;96723.59;2060712;28;20607;-57
2023/05/23 13:12:46;;;;;;;5.78;4.38;;;;;;;19.94;60.68;96729.88;2062456;28;20202;-57
2023/05/23 13:13:49;;;;;;;5.85;4.07;;;;;;;19.83;61.98;96717.47;2059380;28;20226;-57
2023/05/23 13:14:51;;;;;;;6.45;4.85;;;;;;;19.60;62.54;96729.91;2058946;28;20238;-58
2023/05/23 13:15:53;;;;;;;12.55;5.40;;;;;;;19.64;63.09;96721.59;2058162;28;20198;-60
2023/05/23 13:16:54;;;;;;;6.75;4.80;;;;;;;19.57;63.16;96715.09;2059336;28;20200;-57
2023/05/23 13:17:56;;;;;;;6.45;4.82;;;;;;;19.51;63.72;96729.66;2059869;28;20218;-57
2023/05/23 13:18:58;;;;;;;8.55;4.57;;;;;;;19.47;63.01;96699.09;2056455;28;20289;-59
2023/05/23 13:20:00;;;;;;;6.88;4.70;;;;;;;19.46;63.64;96731.00;2057108;28;20563;-58
2023/05/23 13:21:02;;;;;;;7.15;4.55;;;;;;;19.71;63.02;96729.88;2059766;28;20202;-59
2023/05/23 13:22:09;;;;;;;5.28;3.67;;;;;;;19.62;62.70;96734.09;2061271;28;20207;-59
2023/05/23 13:23:10;;;;;;;8.35;4.38;;;;;;;19.50;62.94;96741.22;2059243;28;20203;-59
2023/05/23 13:24:12;;;;;;;5.60;4.25;;;;;;;19.53;63.25;96729.56;2056826;28;20218;-59
2023/05/23 13:25:13;;;;;;;6.35;4.55;;;;;;;19.21;64.18;96731.13;2057582;28;20194;-59
2023/05/23 13:26:15;;;;;;;6.50;4.32;;;;;;;19.27;64.03;96735.09;2060558;28;20659;-59
2023/05/23 13:27:17;;;;;;;8.70;4.63;;;;;;;19.41;64.42;96736.66;2059848;28;20219;-59
2023/05/23 13:28:18;;;;;;;5.88;3.78;;;;;;;19.69;64.04;96735.31;2057054;28;20194;-59
2023/05/23 13:29:20;;;;;;;6.35;4.18;;;;;;;19.60;63.13;96733.38;2059881;28;20225;-59
2023/05/23 13:30:23;;;;;;;7.15;4.30;;;;;;;19.31;62.66;96730.41;2061233;28;20242;-59
2023/05/23 13:31:24;;;;;;;5.90;3.80;;;;;;;19.11;62.99;96732.81;2060061;28;21016;-59
2023/05/23 13:32:26;;;;;;;6.13;4.20;;;;;;;19.02;63.99;96720.28;2058643;28;20298;-59
2023/05/23 13:33:27;;;;;;;7.18;4.38;;;;;;;19.05;63.05;96730.63;2057714;28;20602;-59
2023/05/23 13:34:29;;;;;;;5.78;3.95;;;;;;;19.27;62.98;96728.97;2060183;28;20291;-57
2023/05/23 13:35:30;;;;;;;5.78;4.13;;;;;;;19.11;62.86;96721.38;2060561;28;20210;-59
2023/05/23 13:36:32;;;;;;;8.05;4.28;;;;;;;19.22;62.90;96731.97;2057131;28;20198;-59
2023/05/23 13:37:34;;;;;;;9.35;3.95;;;;;;;19.18;63.56;96734.00;2056190;28;20222;-59
2023/05/23 13:38:36;;;;;;;7.80;4.15;;;;;;;19.19;62.43;96730.41;2057760;28;20237;-59
2023/05/23 13:39:37;;;;;;;5.93;4.85;;;;;;;18.98;62.70;96727.63;2059329;28;20797;-58
2023/05/23 13:40:39;;;;;;;6.88;4.10;;;;;;;19.04;63.05;96727.13;2060619;28;20865;-59
2023/05/23 13:41:41;;;;;;;6.93;3.78;;;;;;;19.21;63.35;96736.41;2059832;28;20202;-59
2023/05/23 13:42:43;;;;;;;6.90;4.75;;;;;;;19.15;63.51;96733.41;2060788;28;20215;-59
2023/05/23 13:43:45;;;;;;;6.18;4.45;;;;;;;19.20;63.76;96733.91;2059453;28;20252;-58
2023/05/23 13:44:46;;;;;;;8.77;4.40;;;;;;;19.20;63.61;96741.84;2056942;28;20633;-58
2023/05/23 13:45:48;;;;;;;6.47;4.75;;;;;;;18.94;64.12;96734.09;2055436;28;20194;-58
2023/05/23 13:46:49;;;;;;;6.30;4.97;;;;;;;19.02;64.49;96737.00;2053988;28;20276;-58
2023/05/23 13:47:51;;;;;;;7.28;4.80;;;;;;;18.95;64.75;96734.97;2054612;28;20203;-59
2023/05/23 13:48:53;;;;;;;9.77;4.97;;;;;;;19.04;65.16;96739.53;2057645;28;20198;-58
2023/05/23 13:49:54;;;;;;;6.53;5.00;;;;;;;19.22;64.72;96737.25;2059581;28;20194;-58
2023/05/23 13:50:55;;;;;;;9.05;5.30;;;;;;;19.22;64.90;96738.13;2060238;28;20970;-59
2023/05/23 13:51:57;;;;;;;6.18;4.60;;;;;;;19.33;64.98;96739.06;2058173;28;20201;-59
2023/05/23 13:52:58;;;;;;;8.32;4.70;;;;;;;19.61;64.19;96742.19;2061651;28;20242;-59
2023/05/23 13:54:00;;;;;;;5.97;4.07;;;;;;;19.72;63.93;96737.69;2060478;28;20685;-59
2023/05/23 13:55:03;;;;;;;8.95;4.95;;;;;;;19.87;63.33;96735.66;2054040;28;20238;-59
2023/05/23 13:56:05;;;;;;;8.15;4.70;;;;;;;19.50;64.20;96735.06;2054164;28;20203;-59
2023/05/23 13:57:06;;;;;;;14.30;5.45;;;;;;;19.28;64.33;96744.72;2054174;28;20206;-58
2023/05/23 13:58:08;;;;;;;6.60;4.68;;;;;;;19.40;64.70;96732.31;2057545;28;20669;-59
2023/05/23 13:59:09;;;;;;;9.73;4.75;;;;;;;19.56;64.14;96735.41;2058588;28;20261;-58
2023/05/23 14:00:12;;;;;;;8.50;4.63;;;;;;;19.45;64.75;96730.13;2057708;28;20248;-58
2023/05/23 14:01:13;;;;;;;8.23;5.30;;;;;;;19.36;64.22;96728.22;2056208;28;20199;-59
2023/05/23 14:02:15;;;;;;;9.60;5.70;;;;;;;19.32;64.34;96737.38;2056376;28;20201;-59
2023/05/23 14:03:18;;;;;;;7.07;5.10;;;;;;;19.28;63.48;96733.28;2054738;28;20213;-59
2023/05/23 14:04:20;;;;;;;10.40;5.00;;;;;;;19.49;63.65;96731.59;2053373;28;20953;-58
2023/05/23 14:05:21;;;;;;;7.55;4.55;;;;;;;19.79;62.90;96730.09;2051233;28;20207;-58
2023/05/23 14:06:23;;;;;;;7.28;5.10;;;;;;;20.03;62.41;96735.22;2054714;28;20262;-58
2023/05/23 14:07:24;;;;;;;7.75;4.50;;;;;;;20.17;62.00;96718.19;2057484;28;20222;-59
2023/05/23 14:08:26;;;;;;;6.38;4.18;;;;;;;20.19;61.42;96724.22;2057130;28;20191;-59
2023/05/23 14:09:27;;;;;;;7.22;3.60;;;;;;;20.52;61.61;96726.88;2057434;28;20265;-58
2023/05/23 14:10:29;;;;;;;6.85;4.07;;;;;;;20.75;61.20;96721.44;2058741;28;20200;-59
2023/05/23 14:11:31;;;;;;;6.97;3.70;;;;;;;20.84;60.05;96723.31;2057638;28;20273;-57
2023/05/23 14:12:33;;;;;;;6.45;4.25;;;;;;;21.04;58.83;96726.94;2058659;28;20198;-57
2023/05/23 14:13:34;;;;;;;5.32;3.55;;;;;;;21.28;58.51;96726.63;2057870;28;20428;-58
2023/05/23 14:14:39;;;;;;;5.50;4.32;;;;;;;21.82;57.37;96726.38;2056858;28;20222;-57
2023/05/23 14:15:40;;;;;;;5.75;4.25;;;;;;;21.68;57.12;96719.66;2059208;28;20198;-58
2023/05/23 14:16:43;;;;;;;6.10;4.53;;;;;;;21.82;56.78;96724.56;2058319;28;20199;-60
2023/05/23 14:17:44;;;;;;;6.07;4.78;;;;;;;21.94;56.04;96727.97;2058310;28;20261;-59
2023/05/23 14:18:46;;;;;;;7.25;4.22;;;;;;;21.72;57.18;96720.22;2057040;28;20215;-58